Thermal, CA

3:47 AM PDT on September 26, 2016 (GMT -0700)
Desert Resorts Regional | | Change Station
Active Advisory: Fire Weather Warning Active Notice: Record Report

Elev -115 ft 33.63 °N, 116.16 °W | Updated 55 minutes ago

Clear
Clear
74 °F
Feels Like 74 °F
N
5
Wind Variable Wind from North

Today
High -- | Low -- °F
--% Chance of Precip.
Yesterday
High -- | Low -- °F
Precip. -- in
Pressure 29.93 in
Visibility 10.0 miles
Clouds Clear
Dew Point 36 °F
Humidity 25%
Rainfall 0.00 in
Snow Depth Not available.
6:35 AM 6:35 PM
Waning Crescent, 20% visible
METAR KTRM 260952Z AUTO 01004KT 10SM CLR 23/02 A2989 RMK AO2 SLP134 T02330022 TSNO
Pressure 29.93 in
Visibility 10.0 miles
Clouds Clear
Dew Point 36 °F
Humidity 25%
Rainfall 0.00 in
Snow Depth Not available.
6:35 AM 6:35 PM
Waning Crescent, 20% visible
METAR KTRM 260952Z AUTO 01004KT 10SM CLR 23/02 A2989 RMK AO2 SLP134 T02330022 TSNO

10-Day Weather Forecast

Almanac

Astronomy

Sep. 26, 2016 Rise Set
Actual Time
Civil Twilight
Nautical Twilight
Astronomical Twilight
Moon
Length of Visible Light
Length of Day
Tomorrow will be .
, % of the Moon is Illuminated

Today's Extremes

State Highs State Lows

Community

WunderPhotos

Upload Photos

1,941,856 photos uploaded!

WunderBlog® & News

Nearby

Air Quality

  Air Quality AQ Index Pollutant
Not available.

Snow Depth

Station Depth Elevation

Earthquake Activity

City Distance Mag. Time & Date
Minimum magnitude displayed is 2.5.

Coastal Water Temperatures

Place Temperature

Stations

Nearby Weather Stations

Station Location Temp. Windchill Dew Point Humidity Wind Precip. Elev Updated Type
                   

Watches & Warnings

Fire Weather Warning
Issued: 9:56 PM PDT Sep. 25, 2016 – National Weather Service

... Red flag warning remains in effect until 3 PM PDT Monday for
strong winds and low humidity for the mountains of Southern
California...

* winds... areas of northeast winds 15 to 30 mph with gusts up to
50 mph... strongest along wind-prone coastal slopes and below
canyons.

* Relative humidity... lowest of 8 to 15 percent.

* Outlook... increasing humidity... decreasing wind... and gradual
cooling Tuesday into Wednesday.

* Impacts... any fires that start may exhibit extreme fire
behavior and spread rapidly. Outdoor burning is not
recommended.

Precautionary/preparedness actions...

A red flag warning means that critical fire weather conditions
are either occurring now... or will shortly. A combination of
strong wind... low relative humidity... and heat will contribute to
extreme fire behavior.